Time;durP1;ratioP1;P1;durP2;ratioP2;P2;SDS_P1;SDS_P2;PMS_P1;PMS_P2;Temp;Humidity;BMP_temperature;BMP_pressure;BME280_temperature;BME280_humidity;BME280_pressure;Samples;Min_cycle;Max_cycle;Signal;HPM_P1;HPM_P2
2024/01/25 00:01:16;;;;;;;26.00;5.70;;;8.10;99.90;;;;;;5031688;28;20486;-54
2024/01/25 00:03:42;;;;;;;25.77;6.23;;;8.10;99.90;;;;;;5029419;28;20524;-54
2024/01/25 00:06:09;;;;;;;25.07;5.30;;;8.10;99.90;;;;;;5027714;28;20977;-55
2024/01/25 00:08:37;;;;;;;21.20;5.60;;;8.10;99.90;;;;;;5021126;28;20520;-55
2024/01/25 00:11:04;;;;;;;20.23;5.80;;;8.10;99.90;;;;;;5032410;28;20482;-54
2024/01/25 00:13:31;;;;;;;21.80;5.60;;;8.10;99.90;;;;;;5034727;28;20446;-56
2024/01/25 00:15:57;;;;;;;28.77;6.73;;;8.10;99.90;;;;;;5028566;28;20467;-54
2024/01/25 00:18:24;;;;;;;19.83;5.73;;;8.00;99.90;;;;;;5022024;28;20948;-54
2024/01/25 00:20:51;;;;;;;20.07;5.30;;;8.00;99.90;;;;;;5020934;28;20536;-54
2024/01/25 00:23:18;;;;;;;26.73;6.47;;;7.90;99.90;;;;;;5031718;28;20482;-54
2024/01/25 00:25:46;;;;;;;26.93;6.50;;;7.90;99.90;;;;;;5032416;28;20964;-55
2024/01/25 00:28:13;;;;;;;22.63;6.13;;;7.90;99.90;;;;;;5030549;28;20895;-57
2024/01/25 00:30:40;;;;;;;25.87;5.83;;;8.00;99.90;;;;;;5028052;28;20482;-55
2024/01/25 00:33:06;;;;;;;21.57;5.30;;;7.90;99.90;;;;;;5028779;28;20475;-56
2024/01/25 00:35:34;;;;;;;23.40;5.67;;;7.90;99.90;;;;;;5026496;28;20466;-54
2024/01/25 00:38:01;;;;;;;24.13;6.60;;;7.90;99.90;;;;;;5026652;28;20495;-56
2024/01/25 00:40:28;;;;;;;11.53;3.67;;;7.90;99.90;;;;;;5025634;28;20475;-56
2024/01/25 00:42:57;;;;;;;25.97;5.30;;;7.90;99.90;;;;;;5028747;28;20490;-56
2024/01/25 00:45:24;;;;;;;23.67;6.53;;;7.90;99.90;;;;;;5031081;28;20455;-55
2024/01/25 00:47:52;;;;;;;22.67;6.00;;;7.90;99.90;;;;;;5033829;28;20542;-55
2024/01/25 00:50:20;;;;;;;25.77;6.30;;;7.90;99.90;;;;;;5034784;28;20467;-60
2024/01/25 00:52:48;;;;;;;15.33;4.83;;;7.90;99.90;;;;;;5032687;28;20459;-55
2024/01/25 00:55:16;;;;;;;20.03;4.90;;;7.90;99.90;;;;;;5028950;28;20494;-55
2024/01/25 00:57:43;;;;;;;20.73;4.70;;;8.00;99.90;;;;;;5035280;28;23019;-57
2024/01/25 01:00:12;;;;;;;22.03;4.83;;;7.90;99.90;;;;;;5033238;28;20478;-54
2024/01/25 01:02:43;;;;;;;18.73;4.97;;;8.00;99.90;;;;;;5033939;28;20486;-54
2024/01/25 01:05:11;;;;;;;22.50;5.30;;;7.90;99.90;;;;;;5034585;28;20489;-55
2024/01/25 01:07:39;;;;;;;21.43;5.90;;;8.00;99.90;;;;;;5033150;28;20462;-55
2024/01/25 01:10:07;;;;;;;19.77;5.07;;;7.90;99.90;;;;;;5028075;28;20558;-56
2024/01/25 01:12:33;;;;;;;19.13;5.60;;;7.90;99.90;;;;;;5032862;28;20877;-58
2024/01/25 01:15:00;;;;;;;24.67;5.00;;;7.90;99.90;;;;;;5033044;28;20470;-55
2024/01/25 01:17:28;;;;;;;21.30;4.97;;;7.90;99.90;;;;;;5034587;28;20602;-55
2024/01/25 01:19:54;;;;;;;16.07;5.00;;;7.90;99.90;;;;;;5029539;28;20481;-56
2024/01/25 01:22:21;;;;;;;20.90;5.33;;;7.90;99.90;;;;;;5028279;28;20549;-60
2024/01/25 01:24:47;;;;;;;27.37;6.07;;;7.90;99.90;;;;;;5033860;28;20447;-55
2024/01/25 01:27:14;;;;;;;23.20;5.50;;;7.90;99.90;;;;;;5026901;28;20524;-58
2024/01/25 01:29:41;;;;;;;21.70;5.50;;;7.90;99.90;;;;;;5029511;28;20501;-56
2024/01/25 01:32:07;;;;;;;24.40;5.93;;;7.90;99.90;;;;;;5033430;28;20439;-55
2024/01/25 01:34:35;;;;;;;23.20;6.83;;;7.90;99.90;;;;;;5034332;28;20521;-54
2024/01/25 01:37:02;;;;;;;22.53;6.20;;;7.90;99.90;;;;;;5030880;28;20467;-56
2024/01/25 01:39:28;;;;;;;20.90;4.93;;;7.90;99.90;;;;;;5033696;28;20540;-56
2024/01/25 01:41:55;;;;;;;21.77;4.97;;;7.90;99.90;;;;;;5032444;28;20537;-56
2024/01/25 01:44:22;;;;;;;23.07;6.27;;;7.80;99.90;;;;;;5031610;28;20513;-56
2024/01/25 01:46:48;;;;;;;25.27;5.80;;;7.80;99.90;;;;;;5033929;28;20451;-55
2024/01/25 01:49:15;;;;;;;24.00;5.00;;;7.80;99.90;;;;;;5035593;28;20529;-54
2024/01/25 01:51:43;;;;;;;19.97;5.40;;;7.80;99.90;;;;;;5031080;28;20502;-57
2024/01/25 01:54:10;;;;;;;26.20;5.43;;;7.80;99.90;;;;;;5032728;28;20462;-57
2024/01/25 01:56:39;;;;;;;20.20;4.77;;;7.80;99.90;;;;;;5030280;28;20463;-58
2024/01/25 01:59:09;;;;;;;22.83;5.50;;;7.80;99.90;;;;;;5029670;28;20456;-58
2024/01/25 02:01:36;;;;;;;22.97;5.23;;;7.70;99.90;;;;;;5032902;28;20493;-58
2024/01/25 02:04:02;;;;;;;18.57;5.40;;;7.80;99.90;;;;;;5034790;28;20974;-58
2024/01/25 02:06:29;;;;;;;27.83;6.80;;;7.80;99.90;;;;;;5034323;28;20513;-58
2024/01/25 02:08:58;;;;;;;28.63;6.30;;;7.80;99.90;;;;;;5034145;28;20465;-57
2024/01/25 02:11:25;;;;;;;20.40;5.80;;;7.80;99.90;;;;;;5034404;28;20458;-60
2024/01/25 02:13:52;;;;;;;24.70;5.93;;;7.80;99.90;;;;;;5030287;28;20447;-58
2024/01/25 02:16:19;;;;;;;30.87;6.33;;;7.70;99.90;;;;;;5040390;28;20964;-58
2024/01/25 02:18:46;;;;;;;29.83;5.77;;;7.70;99.90;;;;;;5040460;28;20948;-59
2024/01/25 02:21:13;;;;;;;28.40;5.07;;;7.70;99.90;;;;;;5040810;28;20479;-64
2024/01/25 02:23:41;;;;;;;22.27;5.43;;;7.70;99.90;;;;;;5040337;28;20522;-57
2024/01/25 02:26:07;;;;;;;22.30;5.43;;;7.70;99.90;;;;;;5045033;28;20465;-62
2024/01/25 02:28:35;;;;;;;22.47;5.43;;;7.70;99.90;;;;;;5034643;28;20455;-59
2024/01/25 02:31:02;;;;;;;24.00;6.13;;;7.70;99.90;;;;;;5044831;28;20500;-60
2024/01/25 02:33:29;;;;;;;23.40;5.30;;;7.70;99.90;;;;;;5037666;28;20485;-64
2024/01/25 02:35:56;;;;;;;23.33;5.60;;;7.70;99.90;;;;;;5050083;28;20486;-64
2024/01/25 02:38:22;;;;;;;20.93;5.40;;;7.70;99.90;;;;;;5042837;28;20481;-62
2024/01/25 02:40:50;;;;;;;20.27;4.90;;;7.70;99.90;;;;;;5038855;28;20494;-58
2024/01/25 02:43:17;;;;;;;22.00;5.83;;;7.80;99.90;;;;;;5031351;28;20493;-65
2024/01/25 02:45:43;;;;;;;29.63;6.07;;;7.80;99.90;;;;;;5023196;28;20466;-57
2024/01/25 02:48:10;;;;;;;21.00;5.60;;;7.80;99.90;;;;;;5018374;28;20899;-63
2024/01/25 02:50:37;;;;;;;23.30;6.13;;;7.70;99.90;;;;;;5028593;28;20482;-57
2024/01/25 02:53:03;;;;;;;33.13;5.63;;;7.70;99.90;;;;;;5023403;28;20819;-57
2024/01/25 02:55:30;;;;;;;20.57;5.47;;;7.80;99.90;;;;;;5027934;28;20471;-59
2024/01/25 02:57:58;;;;;;;17.10;5.20;;;7.80;99.90;;;;;;5027763;28;20473;-57
2024/01/25 03:00:24;;;;;;;20.60;4.57;;;7.80;99.90;;;;;;5023575;28;20548;-58
2024/01/25 03:02:51;;;;;;;20.30;5.40;;;7.80;99.90;;;;;;5021140;28;21703;-56
2024/01/25 03:05:18;;;;;;;31.53;5.77;;;7.80;99.90;;;;;;5025195;28;20550;-56
2024/01/25 03:07:45;;;;;;;26.30;5.77;;;7.80;99.90;;;;;;5026718;28;20494;-56
2024/01/25 03:10:13;;;;;;;34.27;6.53;;;7.80;99.90;;;;;;5025873;28;20471;-56
2024/01/25 03:12:39;;;;;;;16.90;5.70;;;7.80;99.90;;;;;;5027431;28;20530;-56
2024/01/25 03:15:10;;;;;;;20.33;5.07;;;7.70;99.90;;;;;;5028235;28;20475;-57
2024/01/25 03:17:36;;;;;;;26.17;6.27;;;7.70;99.90;;;;;;5023436;28;20521;-56
2024/01/25 03:20:03;;;;;;;26.20;4.87;;;7.70;99.90;;;;;;5023168;28;20536;-56
2024/01/25 03:22:30;;;;;;;30.40;6.20;;;7.70;99.90;;;;;;5018106;28;20518;-56
2024/01/25 03:24:56;;;;;;;22.50;5.50;;;7.70;99.90;;;;;;5028674;28;20573;-57
2024/01/25 03:27:23;;;;;;;26.17;6.20;;;7.70;99.90;;;;;;5034482;28;20552;-56
2024/01/25 03:29:50;;;;;;;24.40;7.23;;;7.70;99.90;;;;;;5033670;28;20479;-56
2024/01/25 03:32:17;;;;;;;17.70;5.30;;;7.70;99.90;;;;;;5034758;28;20467;-57
2024/01/25 03:34:44;;;;;;;21.17;5.77;;;7.60;99.90;;;;;;5033188;28;20544;-56
2024/01/25 03:37:11;;;;;;;18.37;5.20;;;7.60;99.90;;;;;;5034912;28;20494;-56
2024/01/25 03:39:38;;;;;;;18.43;5.30;;;7.60;99.90;;;;;;5030207;28;20528;-57
2024/01/25 03:42:05;;;;;;;35.67;6.27;;;7.60;99.90;;;;;;5032261;28;20459;-57
2024/01/25 03:44:31;;;;;;;22.10;6.20;;;7.60;99.90;;;;;;5029259;28;20810;-56
2024/01/25 03:46:58;;;;;;;19.33;5.17;;;7.60;99.90;;;;;;5034364;28;20516;-57
2024/01/25 03:49:26;;;;;;;17.97;5.17;;;7.50;99.90;;;;;;5033602;28;20544;-57
2024/01/25 03:51:52;;;;;;;18.20;4.77;;;7.60;99.90;;;;;;5034520;28;20473;-56
2024/01/25 03:54:19;;;;;;;19.83;5.13;;;7.60;99.90;;;;;;5028745;28;20554;-56
2024/01/25 03:56:45;;;;;;;39.80;6.73;;;7.60;99.90;;;;;;5033351;28;20878;-58
2024/01/25 03:59:13;;;;;;;23.53;5.50;;;7.60;99.90;;;;;;5028188;28;20521;-58
2024/01/25 04:01:44;;;;;;;22.63;4.90;;;7.60;99.90;;;;;;5034445;28;20471;-56
2024/01/25 04:04:11;;;;;;;18.67;5.67;;;7.60;99.90;;;;;;5034323;28;20487;-56
2024/01/25 04:06:41;;;;;;;22.53;5.77;;;7.60;99.90;;;;;;5034244;28;20503;-57
2024/01/25 04:09:08;;;;;;;22.13;5.00;;;7.60;99.90;;;;;;5033574;28;20878;-55
2024/01/25 04:11:34;;;;;;;19.77;5.13;;;7.50;99.90;;;;;;5028266;28;20470;-58
2024/01/25 04:14:01;;;;;;;24.83;5.30;;;7.50;99.90;;;;;;5035361;28;20854;-58
2024/01/25 04:16:28;;;;;;;17.40;5.43;;;7.50;99.90;;;;;;5033486;28;20944;-57
2024/01/25 04:18:54;;;;;;;23.50;5.63;;;7.40;99.90;;;;;;5033314;28;20979;-57
2024/01/25 04:21:21;;;;;;;20.50;5.60;;;7.50;99.90;;;;;;5032562;28;20459;-55
2024/01/25 04:23:49;;;;;;;22.97;5.80;;;7.50;99.90;;;;;;5023995;28;20482;-55
2024/01/25 04:26:16;;;;;;;20.50;5.40;;;7.50;99.90;;;;;;5032774;28;20524;-55
2024/01/25 04:28:42;;;;;;;23.67;6.23;;;7.50;99.90;;;;;;5033884;28;20996;-55
2024/01/25 04:31:09;;;;;;;26.27;5.90;;;7.50;99.90;;;;;;5035535;28;20511;-55
2024/01/25 04:33:36;;;;;;;18.93;4.80;;;7.50;99.90;;;;;;5029006;28;20458;-55
2024/01/25 04:36:02;;;;;;;23.40;5.53;;;7.40;99.90;;;;;;5025487;28;20785;-55
2024/01/25 04:38:29;;;;;;;22.93;5.70;;;7.40;99.90;;;;;;5030900;28;20836;-54
2024/01/25 04:40:57;;;;;;;27.27;6.03;;;7.40;99.90;;;;;;5025996;28;20960;-55
2024/01/25 04:43:23;;;;;;;17.03;5.27;;;7.40;99.90;;;;;;5032191;28;20831;-56
2024/01/25 04:45:50;;;;;;;29.47;6.40;;;7.40;99.90;;;;;;5033963;28;20471;-55
2024/01/25 04:48:16;;;;;;;28.97;5.10;;;7.40;99.90;;;;;;5029710;28;20458;-55
2024/01/25 04:50:43;;;;;;;28.63;6.53;;;7.40;99.90;;;;;;5031331;28;20540;-55
2024/01/25 04:53:09;;;;;;;18.30;5.70;;;7.40;99.90;;;;;;5032786;28;20514;-55
2024/01/25 04:55:36;;;;;;;18.27;5.17;;;7.40;99.90;;;;;;5028510;28;20538;-55
2024/01/25 04:58:04;;;;;;;25.90;5.80;;;7.40;99.90;;;;;;5023153;28;21027;-54
2024/01/25 05:00:31;;;;;;;20.00;5.23;;;7.40;99.90;;;;;;5020490;28;20550;-55
2024/01/25 05:02:57;;;;;;;23.63;6.20;;;7.30;99.90;;;;;;5028448;28;20478;-55
2024/01/25 05:05:24;;;;;;;26.67;5.40;;;7.40;99.90;;;;;;5023731;28;20536;-55
2024/01/25 05:07:50;;;;;;;18.80;5.80;;;7.40;99.90;;;;;;5026678;28;21515;-54
2024/01/25 05:10:17;;;;;;;18.00;4.63;;;7.40;99.90;;;;;;5029059;28;21073;-55
2024/01/25 05:12:44;;;;;;;21.77;5.10;;;7.40;99.90;;;;;;5036182;28;20474;-59
2024/01/25 05:15:12;;;;;;;21.17;5.10;;;7.40;99.90;;;;;;5038123;28;20458;-54
2024/01/25 05:17:39;;;;;;;20.60;6.23;;;7.40;99.90;;;;;;5039501;28;20454;-56
2024/01/25 05:20:07;;;;;;;23.03;5.50;;;7.40;99.90;;;;;;5047901;28;20479;-56
2024/01/25 05:22:39;;;;;;;28.37;5.87;;;7.40;99.90;;;;;;5036784;28;20450;-55
2024/01/25 05:25:08;;;;;;;24.17;4.87;;;7.40;99.90;;;;;;5036759;28;20451;-57
2024/01/25 05:27:34;;;;;;;24.20;6.00;;;7.40;99.90;;;;;;5029442;28;20476;-57
2024/01/25 05:30:01;;;;;;;22.40;4.90;;;7.40;99.90;;;;;;5024700;28;20510;-56
2024/01/25 05:32:30;;;;;;;29.50;5.23;;;7.40;99.90;;;;;;5027165;28;20452;-57
2024/01/25 05:34:56;;;;;;;18.67;5.07;;;7.40;99.90;;;;;;5025887;28;20454;-56
2024/01/25 05:37:23;;;;;;;25.83;4.57;;;7.40;99.90;;;;;;5029051;28;20485;-57
2024/01/25 05:39:49;;;;;;;18.60;5.10;;;7.40;99.90;;;;;;5018245;28;21000;-56
2024/01/25 05:42:16;;;;;;;21.30;5.33;;;7.40;99.90;;;;;;5015298;28;20973;-56
2024/01/25 05:44:43;;;;;;;24.77;5.23;;;7.40;99.90;;;;;;5025598;28;20479;-57
2024/01/25 05:47:09;;;;;;;30.03;6.00;;;7.30;99.90;;;;;;5026699;28;20525;-57
2024/01/25 05:49:37;;;;;;;26.27;5.70;;;7.30;99.90;;;;;;5021391;28;20478;-61
2024/01/25 05:52:04;;;;;;;23.73;5.00;;;7.30;99.90;;;;;;5027920;28;20466;-56
2024/01/25 05:54:31;;;;;;;22.37;5.67;;;7.40;99.90;;;;;;5024118;28;20454;-56
2024/01/25 05:56:57;;;;;;;18.33;5.43;;;7.40;99.90;;;;;;5027060;28;20463;-56
2024/01/25 05:59:24;;;;;;;31.17;5.03;;;7.30;99.90;;;;;;5018974;28;20507;-56
2024/01/25 06:01:50;;;;;;;24.17;5.20;;;7.40;99.90;;;;;;5033644;28;20513;-56
2024/01/25 06:04:17;;;;;;;19.03;4.63;;;7.40;99.90;;;;;;5031949;28;20541;-56
2024/01/25 06:06:45;;;;;;;18.30;4.50;;;7.40;99.90;;;;;;5033138;28;20451;-56
2024/01/25 06:09:11;;;;;;;23.40;5.10;;;7.40;99.90;;;;;;5031784;28;20469;-55
2024/01/25 06:11:38;;;;;;;28.90;5.57;;;7.40;99.90;;;;;;5032486;28;20493;-56
2024/01/25 06:14:06;;;;;;;22.07;6.17;;;7.30;99.90;;;;;;5033010;28;20827;-56
2024/01/25 06:16:32;;;;;;;23.40;6.13;;;7.40;99.90;;;;;;5027819;28;20458;-57
2024/01/25 06:19:00;;;;;;;28.10;6.20;;;7.40;99.90;;;;;;5032742;28;20470;-57
2024/01/25 06:21:26;;;;;;;15.53;4.50;;;7.30;99.90;;;;;;5047008;28;20447;-56
2024/01/25 06:23:54;;;;;;;23.07;5.07;;;7.30;99.90;;;;;;5044018;28;20493;-56
2024/01/25 06:26:21;;;;;;;17.90;4.73;;;7.30;99.90;;;;;;5045053;28;20447;-57
2024/01/25 06:28:47;;;;;;;23.23;5.97;;;7.30;99.90;;;;;;5046858;28;20513;-58
2024/01/25 06:31:14;;;;;;;21.47;5.37;;;7.30;99.90;;;;;;5032818;28;21048;-57
2024/01/25 06:33:40;;;;;;;18.57;4.67;;;7.30;99.90;;;;;;5030753;28;20443;-58
2024/01/25 06:36:08;;;;;;;15.07;4.00;;;7.20;99.90;;;;;;5029821;28;20489;-58
2024/01/25 06:38:35;;;;;;;23.47;5.70;;;7.30;99.90;;;;;;5033856;28;20443;-56
2024/01/25 06:41:03;;;;;;;24.73;5.90;;;7.30;99.90;;;;;;5031814;28;20906;-56
2024/01/25 06:43:30;;;;;;;22.30;4.90;;;7.20;99.90;;;;;;5032528;28;20541;-57
2024/01/25 06:45:57;;;;;;;17.30;4.60;;;7.30;99.90;;;;;;5021745;28;20462;-58
2024/01/25 06:48:23;;;;;;;18.57;5.10;;;7.20;99.90;;;;;;5024797;28;20451;-57
2024/01/25 06:50:50;;;;;;;23.87;5.50;;;7.20;99.90;;;;;;5030677;28;20470;-58
2024/01/25 06:53:17;;;;;;;10.57;3.50;;;7.30;99.90;;;;;;5032616;28;20953;-57
2024/01/25 06:55:44;;;;;;;28.00;5.90;;;7.30;99.90;;;;;;5026504;28;20455;-61
2024/01/25 06:58:13;;;;;;;22.07;5.40;;;7.30;99.90;;;;;;5016329;28;20455;-57
2024/01/25 07:00:41;;;;;;;20.77;4.97;;;7.30;99.90;;;;;;5030537;28;20490;-58
2024/01/25 07:03:08;;;;;;;22.00;4.83;;;7.30;99.90;;;;;;5031546;28;20515;-57
2024/01/25 07:05:35;;;;;;;17.00;5.13;;;7.30;99.90;;;;;;5027279;28;20470;-57
2024/01/25 07:08:02;;;;;;;23.83;5.80;;;7.30;99.90;;;;;;5031141;28;20465;-57
2024/01/25 07:10:28;;;;;;;18.83;4.93;;;7.20;99.90;;;;;;5027770;28;20517;-57
2024/01/25 07:12:55;;;;;;;22.10;4.53;;;7.20;99.90;;;;;;5031157;28;20455;-57
2024/01/25 07:15:23;;;;;;;20.13;4.87;;;7.20;99.90;;;;;;5022026;28;20513;-57
2024/01/25 07:17:50;;;;;;;17.23;5.10;;;7.20;99.90;;;;;;5029113;28;20999;-58
2024/01/25 07:20:17;;;;;;;16.90;4.00;;;7.20;99.90;;;;;;5028984;28;20568;-59
2024/01/25 07:22:43;;;;;;;25.73;5.27;;;7.20;99.90;;;;;;5031799;28;20467;-58
2024/01/25 07:25:10;;;;;;;17.37;5.17;;;7.20;99.90;;;;;;5022418;28;20511;-57
2024/01/25 07:27:37;;;;;;;14.97;4.60;;;7.10;99.90;;;;;;5031822;28;20459;-58
2024/01/25 07:30:05;;;;;;;15.67;4.90;;;7.20;99.90;;;;;;5031998;28;21000;-57
2024/01/25 07:32:35;;;;;;;17.97;4.73;;;7.20;99.90;;;;;;5031252;28;20470;-57
2024/01/25 07:35:02;;;;;;;12.90;4.83;;;7.20;99.90;;;;;;5031135;28;20991;-57
2024/01/25 07:37:29;;;;;;;21.97;4.30;;;7.20;99.90;;;;;;5032290;28;20896;-58
2024/01/25 07:39:55;;;;;;;26.50;4.70;;;7.20;99.90;;;;;;5021308;28;20479;-57
2024/01/25 07:42:22;;;;;;;17.77;4.70;;;7.20;99.90;;;;;;5026379;28;20459;-57
2024/01/25 07:44:49;;;;;;;20.00;5.97;;;7.20;99.90;;;;;;5028762;28;21216;-58
2024/01/25 07:47:17;;;;;;;23.43;5.97;;;7.20;99.90;;;;;;5030471;28;20801;-57
2024/01/25 07:49:45;;;;;;;22.90;6.77;;;7.20;99.90;;;;;;5030940;28;20525;-57
2024/01/25 07:52:11;;;;;;;18.97;6.10;;;7.20;99.90;;;;;;5028012;28;20541;-57
2024/01/25 07:54:38;;;;;;;20.70;6.30;;;7.20;99.90;;;;;;5031133;28;20493;-58
2024/01/25 07:57:05;;;;;;;24.53;6.87;;;7.20;99.90;;;;;;5027724;28;20490;-57
2024/01/25 07:59:31;;;;;;;24.67;7.63;;;7.20;99.90;;;;;;5018114;28;20478;-57
2024/01/25 08:01:58;;;;;;;19.57;6.20;;;7.20;99.90;;;;;;5028501;28;20864;-57
2024/01/25 08:04:25;;;;;;;23.97;6.33;;;7.20;99.90;;;;;;5027777;28;20486;-59
2024/01/25 08:06:53;;;;;;;17.53;6.90;;;7.30;99.90;;;;;;5031080;28;20459;-59
2024/01/25 08:09:20;;;;;;;24.70;6.47;;;7.30;99.90;;;;;;5031151;28;20525;-58
2024/01/25 08:11:46;;;;;;;18.50;5.20;;;7.30;99.90;;;;;;5032099;28;20451;-59
2024/01/25 08:14:13;;;;;;;21.37;5.80;;;7.30;99.90;;;;;;5032447;28;20439;-58
2024/01/25 08:16:40;;;;;;;20.90;4.93;;;7.30;99.90;;;;;;5027615;28;20469;-58
2024/01/25 08:19:07;;;;;;;25.90;6.87;;;7.30;99.90;;;;;;5034703;28;20447;-58
2024/01/25 08:21:35;;;;;;;24.57;6.87;;;7.40;99.90;;;;;;5032307;28;20466;-58
2024/01/25 08:24:04;;;;;;;31.57;8.30;;;7.30;99.90;;;;;;5027482;28;20478;-57
2024/01/25 08:26:30;;;;;;;21.63;6.70;;;7.40;99.90;;;;;;5033298;28;20498;-58
2024/01/25 08:28:57;;;;;;;22.37;5.90;;;7.40;99.90;;;;;;5032821;28;20454;-57
2024/01/25 08:31:23;;;;;;;18.37;4.90;;;7.40;99.90;;;;;;5031352;28;20809;-57
2024/01/25 08:33:50;;;;;;;22.40;5.80;;;7.30;99.90;;;;;;5029623;28;20458;-57
2024/01/25 08:36:18;;;;;;;21.60;6.53;;;7.40;99.90;;;;;;5033766;28;20463;-57
2024/01/25 08:38:45;;;;;;;18.70;4.97;;;7.40;99.90;;;;;;5032541;28;21023;-58
2024/01/25 08:41:15;;;;;;;14.80;5.37;;;7.40;99.90;;;;;;5027160;28;20510;-57
2024/01/25 08:43:42;;;;;;;26.07;7.00;;;7.40;99.90;;;;;;5030520;28;21032;-57
2024/01/25 08:46:08;;;;;;;20.43;5.20;;;7.40;99.90;;;;;;5030235;28;20467;-57
2024/01/25 08:48:35;;;;;;;26.43;6.23;;;7.40;99.90;;;;;;5029806;28;20462;-57
2024/01/25 08:51:02;;;;;;;22.00;6.90;;;7.40;99.90;;;;;;5032354;28;20536;-57
2024/01/25 08:53:28;;;;;;;17.93;6.30;;;7.40;99.90;;;;;;5030645;28;20454;-57
2024/01/25 08:55:55;;;;;;;25.73;6.30;;;7.40;99.90;;;;;;5034405;28;20441;-57
2024/01/25 08:58:23;;;;;;;15.20;5.00;;;7.50;99.90;;;;;;5027805;28;20470;-56
2024/01/25 09:00:50;;;;;;;20.90;6.17;;;7.50;99.90;;;;;;5030028;28;20980;-57
2024/01/25 09:03:17;;;;;;;24.50;5.43;;;7.50;99.90;;;;;;5028288;28;20599;-60
2024/01/25 09:05:45;;;;;;;18.73;5.63;;;7.40;99.90;;;;;;5032844;28;20545;-56
2024/01/25 09:08:12;;;;;;;22.97;7.53;;;7.50;99.90;;;;;;5033616;28;20435;-57
2024/01/25 09:10:39;;;;;;;19.53;4.57;;;7.50;99.90;;;;;;5034080;28;20458;-58
2024/01/25 09:13:06;;;;;;;19.00;5.77;;;7.50;99.90;;;;;;5033623;28;20439;-57
2024/01/25 09:15:34;;;;;;;19.07;6.10;;;7.50;99.90;;;;;;5033790;28;20460;-57
2024/01/25 09:18:00;;;;;;;25.90;5.57;;;7.50;99.90;;;;;;5024313;28;20493;-56
2024/01/25 09:20:27;;;;;;;20.10;6.53;;;7.50;99.90;;;;;;5032633;28;20486;-58
2024/01/25 09:22:55;;;;;;;17.53;4.97;;;7.50;99.90;;;;;;5032487;28;20474;-57
2024/01/25 09:25:21;;;;;;;17.40;5.13;;;7.50;99.90;;;;;;5028750;28;20831;-57
2024/01/25 09:27:48;;;;;;;25.23;7.80;;;7.50;99.90;;;;;;5027662;28;20474;-57
2024/01/25 09:30:15;;;;;;;22.13;6.00;;;7.50;99.90;;;;;;5053682;28;20493;-57
2024/01/25 09:32:43;;;;;;;22.23;5.40;;;7.50;99.90;;;;;;5048802;28;20435;-57
2024/01/25 09:35:10;;;;;;;20.23;5.47;;;7.50;99.90;;;;;;5050229;28;20469;-57
2024/01/25 09:37:37;;;;;;;27.80;7.33;;;7.40;99.90;;;;;;5049650;28;20875;-58
2024/01/25 09:40:04;;;;;;;17.33;5.87;;;7.50;99.90;;;;;;5038254;28;20467;-57
2024/01/25 09:42:31;;;;;;;14.00;5.50;;;7.40;99.90;;;;;;5033636;28;20443;-57
2024/01/25 09:44:57;;;;;;;24.60;5.30;;;7.40;99.90;;;;;;5027930;28;21056;-57
2024/01/25 09:47:24;;;;;;;30.60;6.53;;;7.50;99.90;;;;;;5033360;28;20446;-57
2024/01/25 09:49:52;;;;;;;16.93;4.67;;;7.50;99.90;;;;;;5033302;28;20984;-57
2024/01/25 09:52:25;;;;;;;19.17;4.30;;;7.50;99.90;;;;;;5034349;28;20501;-56
2024/01/25 09:54:53;;;;;;;20.17;6.07;;;7.50;99.90;;;;;;5032856;28;20459;-57
2024/01/25 09:57:24;;;;;;;18.80;5.07;;;7.50;99.90;;;;;;5032863;28;20794;-57
2024/01/25 09:59:51;;;;;;;13.90;4.70;;;7.50;99.90;;;;;;5024478;28;20459;-59
2024/01/25 10:02:18;;;;;;;24.40;7.63;;;7.50;99.90;;;;;;5024451;28;20458;-57
2024/01/25 10:04:50;;;;;;;12.20;4.00;;;7.60;99.90;;;;;;5032337;28;20491;-57
2024/01/25 10:07:17;;;;;;;19.60;5.00;;;7.60;99.90;;;;;;5022550;28;20459;-56
2024/01/25 10:09:44;;;;;;;24.77;5.70;;;7.60;99.90;;;;;;5029638;28;20525;-58
2024/01/25 10:12:11;;;;;;;21.17;4.97;;;7.60;99.90;;;;;;5029307;28;20991;-57
2024/01/25 10:14:37;;;;;;;15.80;4.10;;;7.60;99.90;;;;;;5033556;28;20908;-57
2024/01/25 10:17:04;;;;;;;12.93;4.00;;;7.70;99.90;;;;;;5034481;28;20466;-58
2024/01/25 10:19:32;;;;;;;19.27;4.10;;;7.60;99.90;;;;;;5029716;28;20537;-58
2024/01/25 10:22:00;;;;;;;14.80;4.23;;;7.60;99.90;;;;;;5019583;28;20969;-58
2024/01/25 10:24:29;;;;;;;16.70;5.10;;;7.60;99.90;;;;;;5023467;28;20554;-58
2024/01/25 10:26:55;;;;;;;20.67;4.70;;;7.70;99.90;;;;;;5035569;28;20458;-58
2024/01/25 10:29:22;;;;;;;16.33;4.90;;;7.70;99.90;;;;;;5039442;28;20459;-58
2024/01/25 10:31:49;;;;;;;19.20;4.37;;;7.60;99.90;;;;;;5038693;28;20450;-58
2024/01/25 10:34:16;;;;;;;19.27;4.67;;;7.70;99.90;;;;;;5027782;28;20454;-56
2024/01/25 10:36:43;;;;;;;27.30;5.13;;;7.70;99.90;;;;;;5038055;28;20442;-59
2024/01/25 10:39:11;;;;;;;22.77;5.00;;;7.80;99.90;;;;;;5037753;28;20447;-57
2024/01/25 10:41:40;;;;;;;20.50;5.80;;;7.80;99.90;;;;;;5031849;28;20477;-57
2024/01/25 10:44:07;;;;;;;21.20;6.13;;;7.70;99.90;;;;;;5028716;28;21386;-58
2024/01/25 10:46:34;;;;;;;20.63;4.43;;;7.70;99.90;;;;;;5024749;28;20486;-56
2024/01/25 10:49:02;;;;;;;23.30;4.90;;;7.70;99.90;;;;;;5031540;28;20447;-57
2024/01/25 10:51:31;;;;;;;17.03;4.73;;;7.80;99.90;;;;;;5031334;28;20454;-58
2024/01/25 10:53:58;;;;;;;17.13;4.40;;;8.00;99.90;;;;;;5030412;28;20442;-58
2024/01/25 10:56:25;;;;;;;16.83;5.10;;;8.00;99.90;;;;;;5032093;28;20473;-58
2024/01/25 10:58:53;;;;;;;18.20;5.43;;;8.00;99.90;;;;;;5032657;28;20505;-57
2024/01/25 11:01:20;;;;;;;15.77;4.13;;;8.00;99.90;;;;;;5024708;28;20540;-58
2024/01/25 11:03:47;;;;;;;25.17;5.73;;;7.90;99.90;;;;;;5028163;28;20446;-57
2024/01/25 11:06:14;;;;;;;24.03;4.60;;;7.90;99.90;;;;;;5028818;28;20491;-58
2024/01/25 11:08:41;;;;;;;26.30;5.50;;;8.00;99.90;;;;;;5043292;28;20423;-57
2024/01/25 11:11:09;;;;;;;15.63;4.10;;;7.90;99.90;;;;;;5052283;28;20518;-61
2024/01/25 11:13:39;;;;;;;22.10;4.57;;;8.00;99.90;;;;;;5052089;28;20474;-59
2024/01/25 11:16:15;;;;;;;13.23;3.87;;;8.00;99.90;;;;;;5049776;28;20431;-57
2024/01/25 11:18:50;;;;;;;20.13;5.20;;;8.00;99.90;;;;;;5044707;28;20449;-59
2024/01/25 11:21:26;;;;;;;17.90;4.07;;;8.00;99.90;;;;;;5025298;28;20852;-58
2024/01/25 11:24:00;;;;;;;18.17;4.60;;;8.10;99.90;;;;;;5030790;28;20933;-57
2024/01/25 11:26:27;;;;;;;21.27;5.63;;;8.00;99.90;;;;;;5025400;28;20542;-57
2024/01/25 11:28:53;;;;;;;17.27;4.60;;;8.00;99.90;;;;;;5032183;28;20565;-56
2024/01/25 11:31:23;;;;;;;25.67;4.50;;;8.10;99.90;;;;;;5031702;28;20513;-55
2024/01/25 11:33:50;;;;;;;18.47;4.00;;;8.10;99.90;;;;;;5032023;28;20449;-56
2024/01/25 11:36:17;;;;;;;12.40;4.57;;;8.20;99.90;;;;;;5033312;28;20443;-57
2024/01/25 11:38:43;;;;;;;21.93;5.40;;;8.30;99.90;;;;;;5031543;28;20443;-57
2024/01/25 11:41:10;;;;;;;19.73;5.23;;;8.30;99.90;;;;;;5031447;28;20459;-57
2024/01/25 11:43:37;;;;;;;14.40;4.97;;;8.40;99.90;;;;;;5030325;28;20462;-57
2024/01/25 11:46:04;;;;;;;21.27;4.67;;;8.50;99.90;;;;;;5035442;28;20474;-57
2024/01/25 11:48:32;;;;;;;23.37;5.03;;;8.50;99.90;;;;;;5028666;28;20548;-56
2024/01/25 11:51:00;;;;;;;19.47;4.87;;;8.50;99.90;;;;;;5030755;28;20467;-56
2024/01/25 11:53:27;;;;;;;17.23;3.77;;;8.60;99.90;;;;;;5034625;28;20438;-56
2024/01/25 11:55:56;;;;;;;11.93;3.50;;;8.40;99.90;;;;;;5034422;28;20435;-56
2024/01/25 11:58:23;;;;;;;14.83;3.40;;;8.50;99.90;;;;;;5035254;28;20442;-56
2024/01/25 12:00:50;;;;;;;18.30;4.87;;;8.40;99.90;;;;;;5034921;28;20508;-56
2024/01/25 12:03:17;;;;;;;25.93;4.93;;;8.40;99.90;;;;;;5030197;28;20486;-56
2024/01/25 12:05:46;;;;;;;21.43;4.17;;;8.50;99.90;;;;;;5033965;28;21014;-56
2024/01/25 12:08:14;;;;;;;17.87;4.43;;;8.50;99.90;;;;;;5031456;28;20442;-56
2024/01/25 12:10:41;;;;;;;31.57;5.00;;;8.60;99.90;;;;;;5033899;28;20875;-56
2024/01/25 12:13:09;;;;;;;14.83;4.60;;;8.70;99.90;;;;;;5034025;28;20442;-56
2024/01/25 12:15:36;;;;;;;16.80;3.63;;;8.70;99.90;;;;;;5014517;28;20455;-56
2024/01/25 12:18:03;;;;;;;19.27;4.57;;;8.70;99.90;;;;;;5029378;28;20447;-55
2024/01/25 12:20:29;;;;;;;19.50;5.20;;;8.80;99.90;;;;;;5036001;28;21067;-56
2024/01/25 12:22:59;;;;;;;15.40;3.93;;;8.70;99.90;;;;;;5034308;28;20505;-57
2024/01/25 12:25:26;;;;;;;17.93;4.57;;;8.70;99.90;;;;;;5024957;28;20490;-57
2024/01/25 12:27:54;;;;;;;17.47;3.50;;;8.70;99.90;;;;;;5031421;28;20941;-56
2024/01/25 12:30:21;;;;;;;14.53;3.97;;;8.60;99.90;;;;;;5033976;28;20466;-56
2024/01/25 12:32:49;;;;;;;20.73;5.13;;;8.60;99.90;;;;;;5032101;28;20442;-56
2024/01/25 12:35:17;;;;;;;17.43;4.03;;;8.60;99.90;;;;;;5034907;28;20465;-56
2024/01/25 12:37:43;;;;;;;22.23;5.10;;;8.60;99.90;;;;;;5034136;28;21012;-56
2024/01/25 12:40:12;;;;;;;14.10;3.77;;;8.50;99.90;;;;;;5034454;28;20980;-57
2024/01/25 12:42:39;;;;;;;24.90;4.90;;;8.50;99.90;;;;;;5034402;28;20439;-57
2024/01/25 12:45:06;;;;;;;15.30;3.30;;;8.40;99.90;;;;;;5033924;28;20442;-57
2024/01/25 12:47:32;;;;;;;16.57;4.00;;;8.50;99.90;;;;;;5035271;28;20584;-55